sensor_id;sensor_type;location;lat;lon;timestamp;temperature;humidity
68439;SHT31;55421;51.600;5.718;2023-11-21T00:00:47;9.03;88.77
68439;SHT31;55421;51.600;5.718;2023-11-21T00:03:33;9.02;88.80
68439;SHT31;55421;51.600;5.718;2023-11-21T00:06:01;9.02;88.80
68439;SHT31;55421;51.600;5.718;2023-11-21T00:08:28;9.02;88.80
68439;SHT31;55421;51.600;5.718;2023-11-21T00:10:55;9.03;88.80
68439;SHT31;55421;51.600;5.718;2023-11-21T00:13:21;9.02;88.80
68439;SHT31;55421;51.600;5.718;2023-11-21T00:15:48;9.01;88.80
68439;SHT31;55421;51.600;5.718;2023-11-21T00:18:14;8.99;88.79
68439;SHT31;55421;51.600;5.718;2023-11-21T00:20:40;8.98;88.80
68439;SHT31;55421;51.600;5.718;2023-11-21T00:23:07;8.96;88.81
68439;SHT31;55421;51.600;5.718;2023-11-21T00:25:33;8.95;88.87
68439;SHT31;55421;51.600;5.718;2023-11-21T00:28:00;8.93;88.90
68439;SHT31;55421;51.600;5.718;2023-11-21T00:30:27;8.92;88.90
68439;SHT31;55421;51.600;5.718;2023-11-21T00:32:55;8.90;88.90
68439;SHT31;55421;51.600;5.718;2023-11-21T00:35:21;8.87;88.90
68439;SHT31;55421;51.600;5.718;2023-11-21T00:37:48;8.84;88.90
68439;SHT31;55421;51.600;5.718;2023-11-21T00:40:15;8.81;88.90
68439;SHT31;55421;51.600;5.718;2023-11-21T00:42:45;8.77;88.90
68439;SHT31;55421;51.600;5.718;2023-11-21T00:45:12;8.73;88.91
68439;SHT31;55421;51.600;5.718;2023-11-21T00:47:39;8.69;88.91
68439;SHT31;55421;51.600;5.718;2023-11-21T00:50:05;8.64;88.90
68439;SHT31;55421;51.600;5.718;2023-11-21T00:52:33;8.60;88.90
68439;SHT31;55421;51.600;5.718;2023-11-21T00:54:59;8.54;88.90
68439;SHT31;55421;51.600;5.718;2023-11-21T00:57:26;8.51;88.89
68439;SHT31;55421;51.600;5.718;2023-11-21T00:59:53;8.47;88.89
68439;SHT31;55421;51.600;5.718;2023-11-21T01:02:19;8.43;88.84
68439;SHT31;55421;51.600;5.718;2023-11-21T01:04:45;8.39;88.89
68439;SHT31;55421;51.600;5.718;2023-11-21T01:07:13;8.37;88.96
68439;SHT31;55421;51.600;5.718;2023-11-21T01:09:40;8.36;89.09
68439;SHT31;55421;51.600;5.718;2023-11-21T01:12:06;8.36;89.13
68439;SHT31;55421;51.600;5.718;2023-11-21T01:14:33;8.34;89.10
68439;SHT31;55421;51.600;5.718;2023-11-21T01:17:00;8.33;89.10
68439;SHT31;55421;51.600;5.718;2023-11-21T01:19:26;8.32;89.13
68439;SHT31;55421;51.600;5.718;2023-11-21T01:21:54;8.33;89.22
68439;SHT31;55421;51.600;5.718;2023-11-21T01:24:20;8.33;89.24
68439;SHT31;55421;51.600;5.718;2023-11-21T01:26:47;8.33;89.29
68439;SHT31;55421;51.600;5.718;2023-11-21T01:29:13;8.32;89.30
68439;SHT31;55421;51.600;5.718;2023-11-21T01:31:42;8.33;89.31
68439;SHT31;55421;51.600;5.718;2023-11-21T01:34:09;8.33;89.30
68439;SHT31;55421;51.600;5.718;2023-11-21T01:36:35;8.32;89.31
68439;SHT31;55421;51.600;5.718;2023-11-21T01:39:02;8.32;89.33
68439;SHT31;55421;51.600;5.718;2023-11-21T01:41:34;8.33;89.40
68439;SHT31;55421;51.600;5.718;2023-11-21T01:44:01;8.34;89.48
68439;SHT31;55421;51.600;5.718;2023-11-21T01:46:28;8.36;89.57
68439;SHT31;55421;51.600;5.718;2023-11-21T01:48:55;8.38;89.63
68439;SHT31;55421;51.600;5.718;2023-11-21T01:51:21;8.39;89.68
68439;SHT31;55421;51.600;5.718;2023-11-21T01:53:48;8.39;89.70
68439;SHT31;55421;51.600;5.718;2023-11-21T01:56:15;8.40;89.78
68439;SHT31;55421;51.600;5.718;2023-11-21T01:58:42;8.40;89.85
68439;SHT31;55421;51.600;5.718;2023-11-21T02:01:10;8.43;89.90
68439;SHT31;55421;51.600;5.718;2023-11-21T02:03:36;8.43;89.90
68439;SHT31;55421;51.600;5.718;2023-11-21T02:06:03;8.45;89.97
68439;SHT31;55421;51.600;5.718;2023-11-21T02:08:31;8.45;89.99
68439;SHT31;55421;51.600;5.718;2023-11-21T02:10:57;8.47;90.01
68439;SHT31;55421;51.600;5.718;2023-11-21T02:13:24;8.49;90.03
68439;SHT31;55421;51.600;5.718;2023-11-21T02:15:50;8.50;90.07
68439;SHT31;55421;51.600;5.718;2023-11-21T02:18:18;8.52;90.10
68439;SHT31;55421;51.600;5.718;2023-11-21T02:20:45;8.52;90.11
68439;SHT31;55421;51.600;5.718;2023-11-21T02:23:12;8.52;90.12
68439;SHT31;55421;51.600;5.718;2023-11-21T02:25:39;8.53;90.10
68439;SHT31;55421;51.600;5.718;2023-11-21T02:28:05;8.52;90.14
68439;SHT31;55421;51.600;5.718;2023-11-21T02:30:33;8.51;90.11
68439;SHT31;55421;51.600;5.718;2023-11-21T02:33:01;8.50;90.10
68439;SHT31;55421;51.600;5.718;2023-11-21T02:35:28;8.50;90.12
68439;SHT31;55421;51.600;5.718;2023-11-21T02:37:57;8.49;90.15
68439;SHT31;55421;51.600;5.718;2023-11-21T02:40:23;8.48;90.19
68439;SHT31;55421;51.600;5.718;2023-11-21T02:42:51;8.48;90.18
68439;SHT31;55421;51.600;5.718;2023-11-21T02:45:18;8.47;90.20
68439;SHT31;55421;51.600;5.718;2023-11-21T02:47:50;8.47;90.20
68439;SHT31;55421;51.600;5.718;2023-11-21T02:50:19;8.47;90.22
68439;SHT31;55421;51.600;5.718;2023-11-21T02:52:46;8.45;90.22
68439;SHT31;55421;51.600;5.718;2023-11-21T02:55:12;8.44;90.20
68439;SHT31;55421;51.600;5.718;2023-11-21T02:57:39;8.44;90.28
68439;SHT31;55421;51.600;5.718;2023-11-21T03:00:06;8.43;90.26
68439;SHT31;55421;51.600;5.718;2023-11-21T03:02:34;8.43;90.29
68439;SHT31;55421;51.600;5.718;2023-11-21T03:05:06;8.42;90.30
68439;SHT31;55421;51.600;5.718;2023-11-21T03:07:36;8.41;90.30
68439;SHT31;55421;51.600;5.718;2023-11-21T03:10:03;8.41;90.31
68439;SHT31;55421;51.600;5.718;2023-11-21T03:12:30;8.41;90.33
68439;SHT31;55421;51.600;5.718;2023-11-21T03:14:57;8.39;90.30
68439;SHT31;55421;51.600;5.718;2023-11-21T03:17:23;8.39;90.31
68439;SHT31;55421;51.600;5.718;2023-11-21T03:19:50;8.37;90.23
68439;SHT31;55421;51.600;5.718;2023-11-21T03:22:18;8.35;90.25
68439;SHT31;55421;51.600;5.718;2023-11-21T03:24:45;8.32;90.24
68439;SHT31;55421;51.600;5.718;2023-11-21T03:27:12;8.31;90.29
68439;SHT31;55421;51.600;5.718;2023-11-21T03:29:38;8.30;90.30
68439;SHT31;55421;51.600;5.718;2023-11-21T03:32:05;8.30;90.30
68439;SHT31;55421;51.600;5.718;2023-11-21T03:34:33;8.29;90.30
68439;SHT31;55421;51.600;5.718;2023-11-21T03:36:59;8.30;90.30
68439;SHT31;55421;51.600;5.718;2023-11-21T03:39:26;8.29;90.30
68439;SHT31;55421;51.600;5.718;2023-11-21T03:41:52;8.29;90.32
68439;SHT31;55421;51.600;5.718;2023-11-21T03:44:19;8.29;90.30
68439;SHT31;55421;51.600;5.718;2023-11-21T03:46:45;8.29;90.30
68439;SHT31;55421;51.600;5.718;2023-11-21T03:49:12;8.31;90.30
68439;SHT31;55421;51.600;5.718;2023-11-21T03:51:38;8.31;90.31
68439;SHT31;55421;51.600;5.718;2023-11-21T03:54:05;8.31;90.29
68439;SHT31;55421;51.600;5.718;2023-11-21T03:56:31;8.31;90.26
68439;SHT31;55421;51.600;5.718;2023-11-21T03:58:58;8.29;90.21
68439;SHT31;55421;51.600;5.718;2023-11-21T04:01:24;8.30;90.29
68439;SHT31;55421;51.600;5.718;2023-11-21T04:03:51;8.29;90.21
68439;SHT31;55421;51.600;5.718;2023-11-21T04:06:18;8.30;90.23
68439;SHT31;55421;51.600;5.718;2023-11-21T04:08:44;8.30;90.30
68439;SHT31;55421;51.600;5.718;2023-11-21T04:11:12;8.28;90.24
68439;SHT31;55421;51.600;5.718;2023-11-21T04:13:39;8.28;90.21
68439;SHT31;55421;51.600;5.718;2023-11-21T04:16:07;8.26;90.20
68439;SHT31;55421;51.600;5.718;2023-11-21T04:18:37;8.26;90.20
68439;SHT31;55421;51.600;5.718;2023-11-21T04:21:05;8.23;90.20
68439;SHT31;55421;51.600;5.718;2023-11-21T04:23:32;8.23;90.19
68439;SHT31;55421;51.600;5.718;2023-11-21T04:25:59;8.20;90.14
68439;SHT31;55421;51.600;5.718;2023-11-21T04:28:28;8.17;90.13
68439;SHT31;55421;51.600;5.718;2023-11-21T04:30:55;8.14;90.10
68439;SHT31;55421;51.600;5.718;2023-11-21T04:33:21;8.11;90.15
68439;SHT31;55421;51.600;5.718;2023-11-21T04:35:48;8.11;90.18
68439;SHT31;55421;51.600;5.718;2023-11-21T04:38:15;8.08;90.20
68439;SHT31;55421;51.600;5.718;2023-11-21T04:40:41;8.09;90.21
68439;SHT31;55421;51.600;5.718;2023-11-21T04:43:08;8.07;90.20
68439;SHT31;55421;51.600;5.718;2023-11-21T04:45:34;8.06;90.20
68439;SHT31;55421;51.600;5.718;2023-11-21T04:48:01;8.06;90.20
68439;SHT31;55421;51.600;5.718;2023-11-21T04:50:27;8.04;90.20
68439;SHT31;55421;51.600;5.718;2023-11-21T04:52:53;8.03;90.25
68439;SHT31;55421;51.600;5.718;2023-11-21T04:55:20;8.02;90.28
68439;SHT31;55421;51.600;5.718;2023-11-21T04:57:47;8.03;90.22
68439;SHT31;55421;51.600;5.718;2023-11-21T05:00:13;8.02;90.23
68439;SHT31;55421;51.600;5.718;2023-11-21T05:02:42;8.01;90.20
68439;SHT31;55421;51.600;5.718;2023-11-21T05:05:09;8.00;90.20
68439;SHT31;55421;51.600;5.718;2023-11-21T05:07:36;7.97;90.13
68439;SHT31;55421;51.600;5.718;2023-11-21T05:10:04;7.94;90.11
68439;SHT31;55421;51.600;5.718;2023-11-21T05:12:37;7.93;90.19
68439;SHT31;55421;51.600;5.718;2023-11-21T05:15:05;7.94;90.30
68439;SHT31;55421;51.600;5.718;2023-11-21T05:17:39;7.93;90.27
68439;SHT31;55421;51.600;5.718;2023-11-21T05:20:10;7.91;90.17
68439;SHT31;55421;51.600;5.718;2023-11-21T05:22:40;7.89;90.18
68439;SHT31;55421;51.600;5.718;2023-11-21T05:25:08;7.89;90.27
68439;SHT31;55421;51.600;5.718;2023-11-21T05:27:35;7.89;90.29
68439;SHT31;55421;51.600;5.718;2023-11-21T05:30:02;7.90;90.30
68439;SHT31;55421;51.600;5.718;2023-11-21T05:32:38;7.91;90.32
68439;SHT31;55421;51.600;5.718;2023-11-21T05:35:05;7.92;90.39
68439;SHT31;55421;51.600;5.718;2023-11-21T05:37:44;7.92;90.40
68439;SHT31;55421;51.600;5.718;2023-11-21T05:40:12;7.94;90.40
68439;SHT31;55421;51.600;5.718;2023-11-21T05:42:39;7.94;90.40
68439;SHT31;55421;51.600;5.718;2023-11-21T05:45:07;7.95;90.39
68439;SHT31;55421;51.600;5.718;2023-11-21T05:47:38;7.96;90.40
68439;SHT31;55421;51.600;5.718;2023-11-21T05:50:15;7.96;90.40
68439;SHT31;55421;51.600;5.718;2023-11-21T05:52:44;7.97;90.40
68439;SHT31;55421;51.600;5.718;2023-11-21T05:55:13;7.96;90.39
68439;SHT31;55421;51.600;5.718;2023-11-21T05:57:40;7.96;90.38
68439;SHT31;55421;51.600;5.718;2023-11-21T06:00:10;7.95;90.37
68439;SHT31;55421;51.600;5.718;2023-11-21T06:02:46;7.96;90.40
68439;SHT31;55421;51.600;5.718;2023-11-21T06:05:17;7.96;90.40
68439;SHT31;55421;51.600;5.718;2023-11-21T06:07:44;7.94;90.37
68439;SHT31;55421;51.600;5.718;2023-11-21T06:10:11;7.95;90.38
68439;SHT31;55421;51.600;5.718;2023-11-21T06:12:43;7.95;90.40
68439;SHT31;55421;51.600;5.718;2023-11-21T06:15:10;7.95;90.43
68439;SHT31;55421;51.600;5.718;2023-11-21T06:17:42;7.96;90.43
68439;SHT31;55421;51.600;5.718;2023-11-21T06:20:10;7.96;90.50
68439;SHT31;55421;51.600;5.718;2023-11-21T06:22:42;7.98;90.50
68439;SHT31;55421;51.600;5.718;2023-11-21T06:25:09;7.99;90.50
68439;SHT31;55421;51.600;5.718;2023-11-21T06:27:39;8.00;90.49
68439;SHT31;55421;51.600;5.718;2023-11-21T06:30:12;8.01;90.50
68439;SHT31;55421;51.600;5.718;2023-11-21T06:32:41;8.04;90.50
68439;SHT31;55421;51.600;5.718;2023-11-21T06:35:12;8.06;90.50
68439;SHT31;55421;51.600;5.718;2023-11-21T06:37:39;8.08;90.49
68439;SHT31;55421;51.600;5.718;2023-11-21T06:40:06;8.09;90.49
68439;SHT31;55421;51.600;5.718;2023-11-21T06:42:33;8.10;90.50
68439;SHT31;55421;51.600;5.718;2023-11-21T06:45:00;8.11;90.55
68439;SHT31;55421;51.600;5.718;2023-11-21T06:47:30;8.14;90.57
68439;SHT31;55421;51.600;5.718;2023-11-21T06:49:56;8.15;90.53
68439;SHT31;55421;51.600;5.718;2023-11-21T06:52:23;8.16;90.52
68439;SHT31;55421;51.600;5.718;2023-11-21T06:54:50;8.18;90.57
68439;SHT31;55421;51.600;5.718;2023-11-21T06:57:17;8.18;90.55
68439;SHT31;55421;51.600;5.718;2023-11-21T06:59:44;8.18;90.55
68439;SHT31;55421;51.600;5.718;2023-11-21T07:02:11;8.19;90.56
68439;SHT31;55421;51.600;5.718;2023-11-21T07:04:37;8.20;90.59
68439;SHT31;55421;51.600;5.718;2023-11-21T07:07:06;8.22;90.60
68439;SHT31;55421;51.600;5.718;2023-11-21T07:09:35;8.22;90.60
68439;SHT31;55421;51.600;5.718;2023-11-21T07:12:02;8.23;90.60
68439;SHT31;55421;51.600;5.718;2023-11-21T07:14:30;8.24;90.61
68439;SHT31;55421;51.600;5.718;2023-11-21T07:16:56;8.25;90.62
68439;SHT31;55421;51.600;5.718;2023-11-21T07:19:22;8.25;90.61
68439;SHT31;55421;51.600;5.718;2023-11-21T07:21:49;8.25;90.61
68439;SHT31;55421;51.600;5.718;2023-11-21T07:24:18;8.25;90.61
68439;SHT31;55421;51.600;5.718;2023-11-21T07:26:45;8.26;90.60
68439;SHT31;55421;51.600;5.718;2023-11-21T07:29:11;8.26;90.63
68439;SHT31;55421;51.600;5.718;2023-11-21T07:31:39;8.27;90.69
68439;SHT31;55421;51.600;5.718;2023-11-21T07:34:07;8.27;90.70
68439;SHT31;55421;51.600;5.718;2023-11-21T07:36:34;8.28;90.70
68439;SHT31;55421;51.600;5.718;2023-11-21T07:39:00;8.28;90.70
68439;SHT31;55421;51.600;5.718;2023-11-21T07:41:28;8.29;90.70
68439;SHT31;55421;51.600;5.718;2023-11-21T07:43:55;8.31;90.74
68439;SHT31;55421;51.600;5.718;2023-11-21T07:46:22;8.32;90.77
68439;SHT31;55421;51.600;5.718;2023-11-21T07:48:50;8.34;90.78
68439;SHT31;55421;51.600;5.718;2023-11-21T07:51:18;8.35;90.78
68439;SHT31;55421;51.600;5.718;2023-11-21T07:53:45;8.38;90.80
68439;SHT31;55421;51.600;5.718;2023-11-21T07:56:11;8.40;90.81
68439;SHT31;55421;51.600;5.718;2023-11-21T07:58:39;8.45;90.80
68439;SHT31;55421;51.600;5.718;2023-11-21T08:01:05;8.50;90.80
68439;SHT31;55421;51.600;5.718;2023-11-21T08:03:32;8.54;90.81
68439;SHT31;55421;51.600;5.718;2023-11-21T08:05:59;8.58;90.84
68439;SHT31;55421;51.600;5.718;2023-11-21T08:08:26;8.64;90.83
68439;SHT31;55421;51.600;5.718;2023-11-21T08:10:53;8.70;90.88
68439;SHT31;55421;51.600;5.718;2023-11-21T08:13:23;8.77;90.87
68439;SHT31;55421;51.600;5.718;2023-11-21T08:15:53;8.82;90.84
68439;SHT31;55421;51.600;5.718;2023-11-21T08:18:20;8.87;90.71
68439;SHT31;55421;51.600;5.718;2023-11-21T08:20:47;8.93;90.66
68439;SHT31;55421;51.600;5.718;2023-11-21T08:23:17;8.99;90.67
68439;SHT31;55421;51.600;5.718;2023-11-21T08:25:44;9.09;90.82
68439;SHT31;55421;51.600;5.718;2023-11-21T08:28:11;9.16;90.68
68439;SHT31;55421;51.600;5.718;2023-11-21T08:30:42;9.23;90.51
68439;SHT31;55421;51.600;5.718;2023-11-21T08:33:09;9.28;90.37
68439;SHT31;55421;51.600;5.718;2023-11-21T08:35:37;9.35;90.20
68439;SHT31;55421;51.600;5.718;2023-11-21T08:38:04;9.39;90.15
68439;SHT31;55421;51.600;5.718;2023-11-21T08:40:31;9.42;90.08
68439;SHT31;55421;51.600;5.718;2023-11-21T08:42:57;9.47;90.01
68439;SHT31;55421;51.600;5.718;2023-11-21T08:45:27;9.51;89.96
68439;SHT31;55421;51.600;5.718;2023-11-21T08:47:53;9.54;89.90
68439;SHT31;55421;51.600;5.718;2023-11-21T08:50:20;9.56;89.86
68439;SHT31;55421;51.600;5.718;2023-11-21T08:52:47;9.57;89.68
68439;SHT31;55421;51.600;5.718;2023-11-21T08:55:14;9.57;89.59
68439;SHT31;55421;51.600;5.718;2023-11-21T08:57:42;9.60;89.63
68439;SHT31;55421;51.600;5.718;2023-11-21T09:00:10;9.64;89.50
68439;SHT31;55421;51.600;5.718;2023-11-21T09:02:38;9.69;89.52
68439;SHT31;55421;51.600;5.718;2023-11-21T09:05:11;9.74;89.36
68439;SHT31;55421;51.600;5.718;2023-11-21T09:07:40;9.75;89.15
68439;SHT31;55421;51.600;5.718;2023-11-21T09:10:08;9.78;89.18
68439;SHT31;55421;51.600;5.718;2023-11-21T09:12:36;9.82;89.18
68439;SHT31;55421;51.600;5.718;2023-11-21T09:15:04;9.87;89.18
68439;SHT31;55421;51.600;5.718;2023-11-21T09:17:32;9.91;89.09
68439;SHT31;55421;51.600;5.718;2023-11-21T09:20:02;9.95;89.04
68439;SHT31;55421;51.600;5.718;2023-11-21T09:22:32;10.01;89.07
68439;SHT31;55421;51.600;5.718;2023-11-21T09:24:59;10.06;89.04
68439;SHT31;55421;51.600;5.718;2023-11-21T09:27:25;10.09;88.85
68439;SHT31;55421;51.600;5.718;2023-11-21T09:29:52;10.13;88.80
68439;SHT31;55421;51.600;5.718;2023-11-21T09:32:19;10.17;88.81
68439;SHT31;55421;51.600;5.718;2023-11-21T09:34:50;10.22;88.89
68439;SHT31;55421;51.600;5.718;2023-11-21T09:37:17;10.28;88.87
68439;SHT31;55421;51.600;5.718;2023-11-21T09:39:43;10.32;88.75
68439;SHT31;55421;51.600;5.718;2023-11-21T09:42:11;10.37;88.68
68439;SHT31;55421;51.600;5.718;2023-11-21T09:44:45;10.39;88.60
68439;SHT31;55421;51.600;5.718;2023-11-21T09:47:47;10.41;88.61
68439;SHT31;55421;51.600;5.718;2023-11-21T09:50:14;10.40;88.59
68439;SHT31;55421;51.600;5.718;2023-11-21T09:53:11;10.41;88.61
68439;SHT31;55421;51.600;5.718;2023-11-21T09:55:44;10.42;88.55
68439;SHT31;55421;51.600;5.718;2023-11-21T09:58:14;10.38;88.38
68439;SHT31;55421;51.600;5.718;2023-11-21T10:00:42;10.32;88.32
68439;SHT31;55421;51.600;5.718;2023-11-21T10:03:14;10.27;88.42
68439;SHT31;55421;51.600;5.718;2023-11-21T10:05:41;10.26;88.50
68439;SHT31;55421;51.600;5.718;2023-11-21T10:08:10;10.25;88.59
68439;SHT31;55421;51.600;5.718;2023-11-21T10:10:45;10.27;88.63
68439;SHT31;55421;51.600;5.718;2023-11-21T10:13:17;10.27;88.62
68439;SHT31;55421;51.600;5.718;2023-11-21T10:15:49;10.26;88.68
68439;SHT31;55421;51.600;5.718;2023-11-21T10:18:18;10.26;88.69
68439;SHT31;55421;51.600;5.718;2023-11-21T10:20:45;10.27;88.72
68439;SHT31;55421;51.600;5.718;2023-11-21T10:23:19;10.26;88.69
68439;SHT31;55421;51.600;5.718;2023-11-21T10:25:47;10.27;88.75
68439;SHT31;55421;51.600;5.718;2023-11-21T10:28:15;10.29;88.78
68439;SHT31;55421;51.600;5.718;2023-11-21T10:30:42;10.32;88.80
68439;SHT31;55421;51.600;5.718;2023-11-21T10:33:08;10.37;88.76
68439;SHT31;55421;51.600;5.718;2023-11-21T10:38:07;10.40;88.79
68439;SHT31;55421;51.600;5.718;2023-11-21T10:40:42;10.42;88.80
68439;SHT31;55421;51.600;5.718;2023-11-21T10:43:11;10.43;88.76
68439;SHT31;55421;51.600;5.718;2023-11-21T10:45:39;10.46;88.80
68439;SHT31;55421;51.600;5.718;2023-11-21T10:48:06;10.48;88.78
68439;SHT31;55421;51.600;5.718;2023-11-21T10:50:34;10.54;88.77
68439;SHT31;55421;51.600;5.718;2023-11-21T10:53:05;10.59;88.68
68439;SHT31;55421;51.600;5.718;2023-11-21T10:55:32;10.59;88.58
68439;SHT31;55421;51.600;5.718;2023-11-21T10:58:01;10.62;88.79
68439;SHT31;55421;51.600;5.718;2023-11-21T11:00:32;10.68;88.90
68439;SHT31;55421;51.600;5.718;2023-11-21T11:03:00;10.75;88.88
68439;SHT31;55421;51.600;5.718;2023-11-21T11:05:29;10.82;88.79
68439;SHT31;55421;51.600;5.718;2023-11-21T11:08:03;10.91;88.78
68439;SHT31;55421;51.600;5.718;2023-11-21T11:10:32;10.97;88.66
68439;SHT31;55421;51.600;5.718;2023-11-21T11:12:59;11.02;88.62
68439;SHT31;55421;51.600;5.718;2023-11-21T11:15:26;11.08;88.55
68439;SHT31;55421;51.600;5.718;2023-11-21T11:17:54;11.13;88.45
68439;SHT31;55421;51.600;5.718;2023-11-21T11:20:34;11.11;88.21
68439;SHT31;55421;51.600;5.718;2023-11-21T11:26:46;10.99;88.23
68439;SHT31;55421;51.600;5.718;2023-11-21T11:35:07;10.90;88.39
68439;SHT31;55421;51.600;5.718;2023-11-21T11:37:45;10.80;88.30
68439;SHT31;55421;51.600;5.718;2023-11-21T11:40:12;10.72;88.42
68439;SHT31;55421;51.600;5.718;2023-11-21T11:42:39;10.74;88.68
68439;SHT31;55421;51.600;5.718;2023-11-21T11:45:18;10.77;88.80
68439;SHT31;55421;51.600;5.718;2023-11-21T11:47:45;10.81;88.92
68439;SHT31;55421;51.600;5.718;2023-11-21T11:50:14;10.85;88.96
68439;SHT31;55421;51.600;5.718;2023-11-21T11:52:45;10.90;88.95
68439;SHT31;55421;51.600;5.718;2023-11-21T11:55:14;10.90;88.83
68439;SHT31;55421;51.600;5.718;2023-11-21T11:57:49;10.88;88.80
68439;SHT31;55421;51.600;5.718;2023-11-21T12:03:00;10.79;88.92
68439;SHT31;55421;51.600;5.718;2023-11-21T12:05:30;10.77;89.00
68439;SHT31;55421;51.600;5.718;2023-11-21T12:08:02;10.73;89.06
68439;SHT31;55421;51.600;5.718;2023-11-21T12:10:31;10.70;89.11
68439;SHT31;55421;51.600;5.718;2023-11-21T12:13:05;10.66;89.17
68439;SHT31;55421;51.600;5.718;2023-11-21T12:15:34;10.62;89.22
68439;SHT31;55421;51.600;5.718;2023-11-21T12:18:01;10.58;89.31
68439;SHT31;55421;51.600;5.718;2023-11-21T12:20:28;10.55;89.40
68439;SHT31;55421;51.600;5.718;2023-11-21T12:22:57;10.53;89.42
68439;SHT31;55421;51.600;5.718;2023-11-21T12:25:27;10.50;89.53
68439;SHT31;55421;51.600;5.718;2023-11-21T12:27:55;10.51;89.67
68439;SHT31;55421;51.600;5.718;2023-11-21T12:30:24;10.51;89.70
68439;SHT31;55421;51.600;5.718;2023-11-21T12:32:55;10.51;89.70
68439;SHT31;55421;51.600;5.718;2023-11-21T12:35:23;10.50;89.76
68439;SHT31;55421;51.600;5.718;2023-11-21T12:37:52;10.51;89.86
68439;SHT31;55421;51.600;5.718;2023-11-21T12:40:21;10.51;89.90
68439;SHT31;55421;51.600;5.718;2023-11-21T12:42:51;10.50;89.90
68439;SHT31;55421;51.600;5.718;2023-11-21T12:45:23;10.48;89.92
68439;SHT31;55421;51.600;5.718;2023-11-21T12:47:54;10.49;90.00
68439;SHT31;55421;51.600;5.718;2023-11-21T12:50:23;10.49;90.09
68439;SHT31;55421;51.600;5.718;2023-11-21T12:52:58;10.52;90.17
68439;SHT31;55421;51.600;5.718;2023-11-21T12:55:31;10.57;90.19
68439;SHT31;55421;51.600;5.718;2023-11-21T12:58:06;10.59;90.16
68439;SHT31;55421;51.600;5.718;2023-11-21T13:00:37;10.60;90.20
68439;SHT31;55421;51.600;5.718;2023-11-21T13:03:09;10.63;90.20
68439;SHT31;55421;51.600;5.718;2023-11-21T13:05:46;10.66;90.20
68439;SHT31;55421;51.600;5.718;2023-11-21T13:08:17;10.69;90.20
68439;SHT31;55421;51.600;5.718;2023-11-21T13:10:54;10.73;90.20
68439;SHT31;55421;51.600;5.718;2023-11-21T13:13:22;10.78;90.27
68439;SHT31;55421;51.600;5.718;2023-11-21T13:15:51;10.81;90.20
68439;SHT31;55421;51.600;5.718;2023-11-21T13:18:24;10.83;90.10
68439;SHT31;55421;51.600;5.718;2023-11-21T13:20:52;10.81;90.03
68439;SHT31;55421;51.600;5.718;2023-11-21T13:23:21;10.77;89.99
68439;SHT31;55421;51.600;5.718;2023-11-21T13:25:49;10.75;90.03
68439;SHT31;55421;51.600;5.718;2023-11-21T13:28:17;10.75;90.10
68439;SHT31;55421;51.600;5.718;2023-11-21T13:30:48;10.76;90.10
68439;SHT31;55421;51.600;5.718;2023-11-21T13:33:14;10.76;90.13
68439;SHT31;55421;51.600;5.718;2023-11-21T13:35:48;10.76;90.10
68439;SHT31;55421;51.600;5.718;2023-11-21T13:38:16;10.74;90.11
68439;SHT31;55421;51.600;5.718;2023-11-21T13:40:49;10.74;90.17
68439;SHT31;55421;51.600;5.718;2023-11-21T13:43:20;10.76;90.20
68439;SHT31;55421;51.600;5.718;2023-11-21T13:45:52;10.78;90.27
68439;SHT31;55421;51.600;5.718;2023-11-21T13:48:27;10.80;90.20
68439;SHT31;55421;51.600;5.718;2023-11-21T13:51:13;10.83;90.22
68439;SHT31;55421;51.600;5.718;2023-11-21T13:53:46;10.86;90.21
68439;SHT31;55421;51.600;5.718;2023-11-21T13:56:16;10.91;90.21
68439;SHT31;55421;51.600;5.718;2023-11-21T13:58:47;10.95;90.21
68439;SHT31;55421;51.600;5.718;2023-11-21T14:01:21;10.99;90.20
68439;SHT31;55421;51.600;5.718;2023-11-21T14:03:56;11.03;90.13
68439;SHT31;55421;51.600;5.718;2023-11-21T14:06:48;11.06;90.10
68439;SHT31;55421;51.600;5.718;2023-11-21T14:09:20;11.08;90.06
68439;SHT31;55421;51.600;5.718;2023-11-21T14:14:19;11.08;89.87
68439;SHT31;55421;51.600;5.718;2023-11-21T14:16:48;11.07;89.80
68439;SHT31;55421;51.600;5.718;2023-11-21T14:19:19;11.07;89.78
68439;SHT31;55421;51.600;5.718;2023-11-21T14:21:46;11.10;89.80
68439;SHT31;55421;51.600;5.718;2023-11-21T14:24:16;11.11;89.73
68439;SHT31;55421;51.600;5.718;2023-11-21T14:26:44;11.11;89.70
68439;SHT31;55421;51.600;5.718;2023-11-21T14:29:13;11.10;89.70
68439;SHT31;55421;51.600;5.718;2023-11-21T14:31:45;11.10;89.68
68439;SHT31;55421;51.600;5.718;2023-11-21T14:34:15;11.05;89.59
68439;SHT31;55421;51.600;5.718;2023-11-21T14:36:41;10.99;89.54
68439;SHT31;55421;51.600;5.718;2023-11-21T14:39:10;10.92;89.50
68439;SHT31;55421;51.600;5.718;2023-11-21T14:41:49;10.86;89.56
68439;SHT31;55421;51.600;5.718;2023-11-21T14:44:16;10.82;89.63
68439;SHT31;55421;51.600;5.718;2023-11-21T14:46:43;10.77;89.68
68439;SHT31;55421;51.600;5.718;2023-11-21T14:49:12;10.74;89.69
68439;SHT31;55421;51.600;5.718;2023-11-21T14:51:51;10.70;89.70
68439;SHT31;55421;51.600;5.718;2023-11-21T14:54:22;10.69;89.76
68439;SHT31;55421;51.600;5.718;2023-11-21T14:57:08;10.68;89.81
68439;SHT31;55421;51.600;5.718;2023-11-21T14:59:45;10.66;89.80
68439;SHT31;55421;51.600;5.718;2023-11-21T15:02:24;10.65;89.80
68439;SHT31;55421;51.600;5.718;2023-11-21T15:05:10;10.64;89.77
68439;SHT31;55421;51.600;5.718;2023-11-21T15:07:42;10.64;89.76
68439;SHT31;55421;51.600;5.718;2023-11-21T15:10:10;10.62;89.70
68439;SHT31;55421;51.600;5.718;2023-11-21T15:12:37;10.62;89.70
68439;SHT31;55421;51.600;5.718;2023-11-21T15:15:06;10.61;89.69
68439;SHT31;55421;51.600;5.718;2023-11-21T15:17:36;10.60;89.65
68439;SHT31;55421;51.600;5.718;2023-11-21T15:20:03;10.59;89.60
68439;SHT31;55421;51.600;5.718;2023-11-21T15:22:33;10.57;89.50
68439;SHT31;55421;51.600;5.718;2023-11-21T15:24:59;10.55;89.48
68439;SHT31;55421;51.600;5.718;2023-11-21T15:27:30;10.54;89.41
68439;SHT31;55421;51.600;5.718;2023-11-21T15:29:57;10.53;89.40
68439;SHT31;55421;51.600;5.718;2023-11-21T15:32:23;10.52;89.40
68439;SHT31;55421;51.600;5.718;2023-11-21T15:34:50;10.51;89.40
68439;SHT31;55421;51.600;5.718;2023-11-21T15:37:16;10.51;89.38
68439;SHT31;55421;51.600;5.718;2023-11-21T15:39:43;10.50;89.40
68439;SHT31;55421;51.600;5.718;2023-11-21T15:42:11;10.50;89.41
68439;SHT31;55421;51.600;5.718;2023-11-21T15:44:38;10.49;89.40
68439;SHT31;55421;51.600;5.718;2023-11-21T15:47:04;10.47;89.40
68439;SHT31;55421;51.600;5.718;2023-11-21T15:49:34;10.45;89.40
68439;SHT31;55421;51.600;5.718;2023-11-21T15:52:03;10.44;89.46
68439;SHT31;55421;51.600;5.718;2023-11-21T15:54:32;10.42;89.47
68439;SHT31;55421;51.600;5.718;2023-11-21T15:57:00;10.40;89.51
68439;SHT31;55421;51.600;5.718;2023-11-21T15:59:27;10.39;89.51
68439;SHT31;55421;51.600;5.718;2023-11-21T16:01:57;10.37;89.52
68439;SHT31;55421;51.600;5.718;2023-11-21T16:04:24;10.35;89.45
68439;SHT31;55421;51.600;5.718;2023-11-21T16:06:53;10.31;89.40